Airfield :
LOGIN :

Register | Disclaimer

   EN    FR    IT 

 










Legend :    VFR   Marginal VFR   IFR   Intensive IFR   Very Intensive IFR
Visi :
Ceiling :
>= 8 km
>= 3000ft
5 to 8 km
1000 to 3000 ft
1500m to 5 km
500 to 1000 ft
800 to 1500m
200 to 500 ft
< 800m
< 200 ft
Symbols :   Thunderstorms  Fog  Heavy snow  Heavy precipitations  Wind > 20 kt
SIGMETs :     Misc.  Thunderstorms  Icing  Turbulence  Mountain Waves  Volcanic Ashes






- Airport Elevation : 1768 ft


LEHC - Huesca Pirineos

CURRENT METAR :
  • 261730Z AUTO 25007KT 210V290 CAVOK 25/15 Q1025

EXPIRED METARs :
  • 261700Z AUTO 25006KT 200V300 CAVOK 26/15 Q1025
  • 261630Z AUTO 27006KT 200V330 9999 FEW048 26/15 Q1025
  • 261600Z AUTO 25006KT 220V320 9999 FEW048 26/16 Q1025
  • 261530Z AUTO 25006KT 190V300 CAVOK 26/15 Q1025
  • 261500Z AUTO 26006KT 210V290 CAVOK 26/16 Q1025

TAF TAF LEHC
Valid from the 26 at 15:00 until the 27 at 15:00 UTC


261400Z 2615/2715 25008KT 9999 FEW030 TX29/2714Z TN17/2706Z
BECMG 2620/2623 09007KT
TEMPO 2708/2714 SHRA FEW030CB



MET'MAP, your aeronautical weather chart ! - Copyright ORBIFLY December 2007 - Disclaimer

ORBIFLY MET'MAP TEAM :

Programming & Development : Alexandra Zaïnal
Concept & original design : Baudouin d'Aumeries
Assistance for programming : Marc-Olivier Méhu
Technical & hardware support : Manuel Goepfert

Contact : metmap@orbifly.com




SOURCES & CREDITS :

   NOAA